createdAt,value
2022-12-18T00:02:13.956Z,65.17
2022-12-18T00:04:40.621Z,63.63
2022-12-18T00:07:07.808Z,67.10
2022-12-18T00:09:39.665Z,62.50
2022-12-18T00:14:45.614Z,61.43
2022-12-18T00:17:12.349Z,62.60
2022-12-18T00:19:39.136Z,62.77
2022-12-18T00:22:07.195Z,65.63
2022-12-18T00:24:33.906Z,60.93
2022-12-18T00:27:00.597Z,55.67
2022-12-18T00:29:27.258Z,62.90
2022-12-18T00:31:53.969Z,59.27
2022-12-18T00:34:20.604Z,63.70
2022-12-18T00:36:49.100Z,58.53
2022-12-18T00:39:15.729Z,59.70
2022-12-18T00:42:01.140Z,63.43
2022-12-18T00:44:27.714Z,62.10
2022-12-18T00:46:54.373Z,67.53
2022-12-18T00:49:21.824Z,60.63
2022-12-18T00:51:49.389Z,61.47
2022-12-18T00:54:16.440Z,58.77
2022-12-18T00:56:49.202Z,70.03
2022-12-18T00:59:17.814Z,62.70
2022-12-18T01:01:45.686Z,62.97
2022-12-18T01:04:12.588Z,58.20
2022-12-18T01:06:39.271Z,63.23
2022-12-18T01:09:06.776Z,59.87
2022-12-18T01:11:33.465Z,56.30
2022-12-18T01:14:00.044Z,65.10
2022-12-18T01:16:26.779Z,57.03
2022-12-18T01:18:55.106Z,61.10
2022-12-18T01:21:22.668Z,53.60
2022-12-18T01:23:53.645Z,59.67
2022-12-18T01:26:20.664Z,59.07
2022-12-18T01:28:47.500Z,59.80
2022-12-18T01:31:21.540Z,60.50
2022-12-18T01:33:48.349Z,61.10
2022-12-18T01:36:41.343Z,58.73
2022-12-18T01:39:11.324Z,74.83
2022-12-18T01:41:57.517Z,58.90
2022-12-18T01:45:02.005Z,57.93
2022-12-18T01:47:39.781Z,59.20
2022-12-18T01:50:13.806Z,58.33
2022-12-18T01:52:43.457Z,58.40
2022-12-18T01:55:10.964Z,51.20
2022-12-18T01:57:38.815Z,55.73
2022-12-18T02:00:10.350Z,60.60
2022-12-18T02:02:37.626Z,60.70
2022-12-18T02:05:05.177Z,58.33
2022-12-18T02:07:50.378Z,56.70
2022-12-18T02:10:26.163Z,63.03
2022-12-18T02:13:11.781Z,57.10
2022-12-18T02:15:49.237Z,52.80
2022-12-18T02:18:30.064Z,55.73
2022-12-18T02:21:17.179Z,59.53
2022-12-18T02:23:49.754Z,67.67
2022-12-18T02:26:23.991Z,63.13
2022-12-18T02:28:57.352Z,57.87
2022-12-18T02:31:31.514Z,64.83
2022-12-18T02:34:02.606Z,58.37
2022-12-18T02:36:30.991Z,55.10
2022-12-18T02:38:58.337Z,67.03
2022-12-18T02:41:25.999Z,64.23
2022-12-18T02:44:07.900Z,57.97
2022-12-18T02:46:38.597Z,70.13
2022-12-18T02:49:35.381Z,72.43
2022-12-18T02:52:18.604Z,58.40
2022-12-18T02:55:22.635Z,63.00
2022-12-18T02:57:55.753Z,63.77
2022-12-18T03:00:28.402Z,61.07
2022-12-18T03:03:04.460Z,62.03
2022-12-18T03:05:44.351Z,62.30
2022-12-18T03:08:20.072Z,59.40
2022-12-18T03:10:56.935Z,56.40
2022-12-18T03:13:29.314Z,62.40
2022-12-18T03:15:57.995Z,71.87
2022-12-18T03:18:31.404Z,73.03
2022-12-18T03:21:01.201Z,79.17
2022-12-18T03:23:32.254Z,72.97
2022-12-18T03:26:07.333Z,67.70
2022-12-18T03:28:41.287Z,68.07
2022-12-18T03:31:12.382Z,59.07
2022-12-18T03:33:47.676Z,62.87
2022-12-18T03:36:14.920Z,65.07
2022-12-18T03:38:41.564Z,63.77
2022-12-18T03:41:18.938Z,59.20
2022-12-18T03:43:59.373Z,69.73
2022-12-18T03:46:34.737Z,63.37
2022-12-18T03:49:16.024Z,60.47
2022-12-18T03:52:15.423Z,65.30
2022-12-18T03:57:15.598Z,62.27
2022-12-18T03:59:43.970Z,64.40
2022-12-18T04:02:11.308Z,61.90
2022-12-18T04:04:39.603Z,58.70
2022-12-18T04:07:07.237Z,60.30
2022-12-18T04:09:34.812Z,61.97
2022-12-18T04:12:01.447Z,59.63
2022-12-18T04:14:28.086Z,66.27
2022-12-18T04:16:54.719Z,64.67
2022-12-18T04:19:21.338Z,60.40
2022-12-18T04:21:47.965Z,60.10
2022-12-18T04:24:14.650Z,64.87
2022-12-18T04:26:41.334Z,62.70
2022-12-18T04:29:08.035Z,64.47
2022-12-18T04:31:34.731Z,69.77
2022-12-18T04:34:01.535Z,63.23
2022-12-18T04:36:28.409Z,64.70
2022-12-18T04:38:55.106Z,63.20
2022-12-18T04:41:21.824Z,58.53
2022-12-18T04:43:48.473Z,65.43
2022-12-18T04:46:15.273Z,64.97
2022-12-18T04:48:42.034Z,65.10
2022-12-18T04:51:08.993Z,59.47
2022-12-18T04:53:35.632Z,66.53
2022-12-18T04:56:11.069Z,62.80
2022-12-18T04:58:38.543Z,55.97
2022-12-18T05:01:06.311Z,60.37
2022-12-18T05:03:33.048Z,60.13
2022-12-18T05:06:00.091Z,66.60
2022-12-18T05:08:26.932Z,57.33
2022-12-18T05:11:16.605Z,63.07
2022-12-18T05:13:45.166Z,64.43
2022-12-18T05:16:12.685Z,67.47
2022-12-18T05:18:39.565Z,64.13
2022-12-18T05:21:06.449Z,64.00
2022-12-18T05:23:33.036Z,60.43
2022-12-18T05:26:02.477Z,73.07
2022-12-18T05:30:58.958Z,59.73
2022-12-18T05:33:27.609Z,62.45
2022-12-18T05:35:58.302Z,63.33
2022-12-18T05:38:26.677Z,64.33
2022-12-18T05:40:54.090Z,62.43
2022-12-18T05:43:22.723Z,58.10
2022-12-18T05:45:50.436Z,62.90
2022-12-18T05:48:18.196Z,64.30
2022-12-18T05:50:49.131Z,61.97
2022-12-18T05:53:17.962Z,50.10
2022-12-18T05:55:45.099Z,60.65
2022-12-18T05:58:12.637Z,52.57
2022-12-18T06:00:41.838Z,50.47
2022-12-18T06:03:10.142Z,52.58
2022-12-18T06:05:41.559Z,55.13
2022-12-18T06:08:08.440Z,56.77
2022-12-18T06:10:35.066Z,53.30
2022-12-18T06:13:02.010Z,46.83
2022-12-18T06:15:28.869Z,51.03
2022-12-18T06:17:55.438Z,50.37
2022-12-18T06:20:22.514Z,53.77
2022-12-18T06:22:49.553Z,46.30
2022-12-18T06:25:16.504Z,48.10
2022-12-18T06:27:43.205Z,49.00
2022-12-18T06:30:11.326Z,45.17
2022-12-18T06:32:38.122Z,50.73
2022-12-18T06:35:05.208Z,54.13
2022-12-18T06:37:32.566Z,48.23
2022-12-18T06:39:59.394Z,46.70
2022-12-18T06:42:26.410Z,47.47
2022-12-18T06:44:53.062Z,52.33
2022-12-18T06:47:20.053Z,51.87
2022-12-18T06:49:46.673Z,47.60
2022-12-18T06:52:13.309Z,52.10
2022-12-18T06:54:39.888Z,42.60
2022-12-18T06:57:06.743Z,54.13
2022-12-18T06:59:33.408Z,45.73
2022-12-18T07:02:00.182Z,50.83
2022-12-18T07:04:31.625Z,42.13
2022-12-18T07:06:58.662Z,47.17
2022-12-18T07:09:25.607Z,49.57
2022-12-18T07:11:53.330Z,46.30
2022-12-18T07:14:20.163Z,43.33
2022-12-18T07:16:46.973Z,37.13
2022-12-18T07:19:13.655Z,44.73
2022-12-18T07:21:40.311Z,46.23
2022-12-18T07:24:07.438Z,45.73
2022-12-18T07:26:34.113Z,39.83
2022-12-18T07:29:00.792Z,38.80
2022-12-18T07:31:28.147Z,40.40
2022-12-18T07:33:55.403Z,44.50
2022-12-18T07:36:25.081Z,44.90
2022-12-18T07:38:53.353Z,46.53
2022-12-18T07:41:20.854Z,40.13
2022-12-18T07:43:47.809Z,42.50
2022-12-18T07:46:16.667Z,39.23
2022-12-18T07:48:45.791Z,44.15
2022-12-18T07:51:16.095Z,36.53
2022-12-18T07:53:43.643Z,38.23
2022-12-18T07:56:29.998Z,41.40
2022-12-18T07:58:57.851Z,42.80
2022-12-18T08:01:24.758Z,36.77
2022-12-18T08:03:52.323Z,42.97
2022-12-18T08:06:19.671Z,39.57
2022-12-18T08:08:49.845Z,37.40
2022-12-18T08:11:17.021Z,34.67
2022-12-18T08:13:43.814Z,43.47
2022-12-18T08:16:10.734Z,36.10
2022-12-18T08:18:38.407Z,39.33
2022-12-18T08:21:12.621Z,35.40
2022-12-18T08:23:43.025Z,37.27
2022-12-18T08:26:11.233Z,35.87
2022-12-18T08:28:37.908Z,36.00
2022-12-18T08:31:04.891Z,36.73
2022-12-18T08:33:31.949Z,40.47
2022-12-18T08:36:00.153Z,35.23
2022-12-18T08:38:26.865Z,41.70
2022-12-18T08:41:05.600Z,32.17
2022-12-18T08:43:50.729Z,37.22
2022-12-18T08:46:21.495Z,36.83
2022-12-18T08:48:48.702Z,36.73
2022-12-18T08:51:18.180Z,33.92
2022-12-18T08:53:45.814Z,35.45
2022-12-18T08:56:13.155Z,36.40
2022-12-18T08:58:40.403Z,36.23
2022-12-18T09:01:11.033Z,39.27
2022-12-18T09:03:38.184Z,42.57
2022-12-18T09:06:06.022Z,41.80
2022-12-18T09:08:32.778Z,39.23
2022-12-18T09:10:59.411Z,42.67
2022-12-18T09:13:26.076Z,43.55
2022-12-18T09:15:54.394Z,36.70
2022-12-18T09:18:23.357Z,38.42
2022-12-18T09:20:51.386Z,39.20
2022-12-18T09:23:18.051Z,37.15
2022-12-18T09:25:44.732Z,40.08
2022-12-18T09:28:16.274Z,40.30
2022-12-18T09:30:46.232Z,35.78
2022-12-18T09:33:13.571Z,42.70
2022-12-18T09:35:41.982Z,43.10
2022-12-18T09:38:12.135Z,39.63
2022-12-18T09:40:54.475Z,43.50
2022-12-18T09:43:46.550Z,39.40
2022-12-18T09:46:30.138Z,39.77
2022-12-18T09:49:01.182Z,48.97
2022-12-18T09:51:33.433Z,48.10
2022-12-18T09:54:05.204Z,49.03
2022-12-18T09:56:37.732Z,46.07
2022-12-18T09:59:05.814Z,46.93
2022-12-18T10:01:41.538Z,46.17
2022-12-18T10:04:10.261Z,48.63
2022-12-18T10:06:40.196Z,48.93
2022-12-18T10:09:29.467Z,47.30
2022-12-18T10:12:05.157Z,53.00
2022-12-18T10:14:52.730Z,53.27
2022-12-18T10:17:46.706Z,53.97
2022-12-18T10:20:46.028Z,52.77
2022-12-18T10:23:48.180Z,66.40
2022-12-18T10:26:15.420Z,65.67
2022-12-18T10:28:44.657Z,64.83
2022-12-18T10:31:24.901Z,62.77
2022-12-18T10:33:52.470Z,69.73
2022-12-18T10:36:19.699Z,74.23
2022-12-18T10:38:46.459Z,75.13
2022-12-18T10:41:19.626Z,69.93
2022-12-18T10:43:48.641Z,69.63
2022-12-18T10:46:20.589Z,70.60
2022-12-18T10:48:55.101Z,77.70
2022-12-18T10:51:31.917Z,69.90
2022-12-18T10:54:00.864Z,76.93
2022-12-18T10:56:30.432Z,70.70
2022-12-18T10:59:02.876Z,76.30
2022-12-18T11:01:47.925Z,68.93
2022-12-18T11:04:22.258Z,77.37
2022-12-18T11:07:01.391Z,77.13
2022-12-18T11:09:33.303Z,77.93
2022-12-18T11:12:02.638Z,78.43
2022-12-18T11:14:31.655Z,84.22
2022-12-18T11:20:00.363Z,85.00
2022-12-18T11:22:30.055Z,84.33
2022-12-18T11:25:32.290Z,84.57
2022-12-18T11:28:03.721Z,78.67
2022-12-18T11:30:31.571Z,76.93
2022-12-18T11:33:20.312Z,84.13
2022-12-18T11:36:06.200Z,79.45
2022-12-18T11:38:40.244Z,81.37
2022-12-18T11:41:52.949Z,85.30
2022-12-18T11:44:30.743Z,81.13
2022-12-18T11:47:04.337Z,86.97
2022-12-18T11:49:37.648Z,93.47
2022-12-18T11:52:22.204Z,90.97
2022-12-18T11:54:52.761Z,92.90
2022-12-18T11:57:48.866Z,89.07
2022-12-18T12:00:19.792Z,79.93
2022-12-18T12:02:59.225Z,87.07
2022-12-18T12:08:16.362Z,91.75
2022-12-18T12:10:57.818Z,92.80
2022-12-18T12:13:36.563Z,86.60
2022-12-18T12:16:18.039Z,86.80
2022-12-18T12:19:05.610Z,92.30
2022-12-18T12:21:38.046Z,102.60
2022-12-18T12:24:38.185Z,93.83
2022-12-18T12:27:16.193Z,91.27
2022-12-18T12:29:55.943Z,89.30
2022-12-18T12:32:55.033Z,97.78
2022-12-18T12:35:36.247Z,94.20
2022-12-18T12:38:29.389Z,87.63
2022-12-18T12:41:03.430Z,89.33
2022-12-18T12:46:38.901Z,92.23
2022-12-18T12:49:36.339Z,86.87
2022-12-18T12:52:15.986Z,92.67
2022-12-18T12:54:44.343Z,88.43
2022-12-18T12:57:21.233Z,95.97
2022-12-18T13:00:25.274Z,96.03
2022-12-18T13:02:58.914Z,91.83
2022-12-18T13:05:39.792Z,84.63
2022-12-18T13:08:11.667Z,86.57
2022-12-18T13:10:44.110Z,90.07
2022-12-18T13:13:18.633Z,92.87
2022-12-18T13:16:04.936Z,95.95
2022-12-18T13:18:34.042Z,89.80
2022-12-18T13:23:47.299Z,118.43
2022-12-18T13:26:28.111Z,92.57
2022-12-18T13:28:57.259Z,94.77
2022-12-18T13:31:42.348Z,93.47
2022-12-18T13:34:26.837Z,96.00
2022-12-18T13:37:33.576Z,98.67
2022-12-18T13:40:00.246Z,95.37
2022-12-18T13:43:11.713Z,92.17
2022-12-18T13:46:04.351Z,90.77
2022-12-18T13:48:34.564Z,100.63
2022-12-18T13:51:10.269Z,93.47
2022-12-18T13:53:45.281Z,93.90
2022-12-18T13:56:19.495Z,97.20
2022-12-18T13:59:03.820Z,99.37
2022-12-18T14:01:30.714Z,94.10
2022-12-18T14:04:11.839Z,103.47
2022-12-18T14:06:38.828Z,96.20
2022-12-18T14:09:06.404Z,94.43
2022-12-18T14:11:36.213Z,96.47
2022-12-18T14:14:08.232Z,86.27
2022-12-18T14:16:35.598Z,96.07
2022-12-18T14:19:07.292Z,97.80
2022-12-18T14:21:46.933Z,107.00
2022-12-18T14:24:19.709Z,92.87
2022-12-18T14:26:48.153Z,90.50
2022-12-18T14:29:24.379Z,85.03
2022-12-18T14:32:11.823Z,92.07
2022-12-18T14:34:42.033Z,92.80
2022-12-18T14:37:11.952Z,94.07
2022-12-18T14:39:38.819Z,88.97
2022-12-18T14:42:05.546Z,88.80
2022-12-18T14:44:44.143Z,91.27
2022-12-18T14:47:18.544Z,84.93
2022-12-18T14:49:45.494Z,91.40
2022-12-18T14:52:32.900Z,87.13
2022-12-18T14:54:59.622Z,86.47
2022-12-18T14:57:36.492Z,84.97
2022-12-18T15:00:08.575Z,83.80
2022-12-18T15:02:37.318Z,86.47
2022-12-18T15:05:19.117Z,83.88
2022-12-18T15:07:48.799Z,86.10
2022-12-18T15:10:19.565Z,91.77
2022-12-18T15:12:50.142Z,82.33
2022-12-18T15:15:37.340Z,86.60
2022-12-18T15:18:09.808Z,80.70
2022-12-18T15:20:44.020Z,81.17
2022-12-18T15:23:34.749Z,92.67
2022-12-18T15:26:09.818Z,93.10
2022-12-18T15:28:44.096Z,81.30
2022-12-18T15:31:12.051Z,88.87
2022-12-18T15:33:45.156Z,86.87
2022-12-18T15:36:18.038Z,87.43
2022-12-18T15:38:56.087Z,82.60
2022-12-18T15:41:36.453Z,85.70
2022-12-18T15:44:16.726Z,77.67
2022-12-18T15:46:43.492Z,83.90
2022-12-18T15:49:10.170Z,86.97
2022-12-18T15:51:38.216Z,79.53
2022-12-18T15:54:09.860Z,81.67
2022-12-18T15:56:55.050Z,85.50
2022-12-18T15:59:21.998Z,86.60
2022-12-18T16:01:51.689Z,83.10
2022-12-18T16:04:21.419Z,82.70
2022-12-18T16:07:13.777Z,85.67
2022-12-18T16:09:35.375Z,80.10
2022-12-18T16:12:02.292Z,81.77
2022-12-18T16:14:32.700Z,79.07
2022-12-18T16:17:01.665Z,80.47
2022-12-18T16:19:29.286Z,86.55
2022-12-18T16:21:58.059Z,86.70
2022-12-18T16:24:30.530Z,78.55
2022-12-18T16:27:00.282Z,85.90
2022-12-18T16:29:28.684Z,75.60
2022-12-18T16:31:56.624Z,86.30
2022-12-18T16:34:29.573Z,78.77
2022-12-18T16:37:05.889Z,86.87
2022-12-18T16:39:34.952Z,89.40
2022-12-18T16:42:06.064Z,85.72
2022-12-18T16:44:35.997Z,82.40
2022-12-18T16:47:03.260Z,83.10
2022-12-18T16:49:30.712Z,84.43
2022-12-18T16:51:57.576Z,82.73
2022-12-18T16:54:24.480Z,80.20
2022-12-18T16:56:52.377Z,90.07
2022-12-18T16:59:19.315Z,86.77
2022-12-18T17:01:47.287Z,81.70
2022-12-18T17:04:14.859Z,83.70
2022-12-18T17:06:43.741Z,81.93
2022-12-18T17:09:15.889Z,87.00
2022-12-18T17:11:43.772Z,87.53
2022-12-18T17:14:14.467Z,92.67
2022-12-18T17:16:41.244Z,89.83
2022-12-18T17:19:13.609Z,83.63
2022-12-18T17:21:45.001Z,88.07
2022-12-18T17:24:11.817Z,82.23
2022-12-18T17:26:38.506Z,81.50
2022-12-18T17:29:05.394Z,82.70
2022-12-18T17:31:32.796Z,84.97
2022-12-18T17:34:01.424Z,79.70
2022-12-18T17:36:34.236Z,74.07
2022-12-18T17:39:02.003Z,79.50
2022-12-18T17:41:29.887Z,83.00
2022-12-18T17:44:02.745Z,76.97
2022-12-18T17:46:31.000Z,81.57
2022-12-18T17:48:59.295Z,81.10
2022-12-18T17:51:26.049Z,86.47
2022-12-18T17:53:52.886Z,82.75
2022-12-18T17:56:22.272Z,80.60
2022-12-18T17:58:50.485Z,78.45
2022-12-18T18:01:20.261Z,82.97
2022-12-18T18:03:48.975Z,78.40
2022-12-18T18:06:18.725Z,84.80
2022-12-18T18:08:45.733Z,82.30
2022-12-18T18:11:34.461Z,94.47
2022-12-18T18:14:02.161Z,86.35
2022-12-18T18:16:36.021Z,91.37
2022-12-18T18:19:05.685Z,85.10
2022-12-18T18:24:01.383Z,85.47
2022-12-18T18:26:31.067Z,104.17
2022-12-18T18:28:59.668Z,91.87
2022-12-18T18:31:29.857Z,82.90
2022-12-18T18:33:57.752Z,84.72
2022-12-18T18:36:24.911Z,81.67
2022-12-18T18:38:52.532Z,77.93
2022-12-18T18:41:20.173Z,78.63
2022-12-18T18:43:46.809Z,90.67
2022-12-18T18:46:15.179Z,86.00
2022-12-18T18:48:42.492Z,85.00
2022-12-18T18:51:19.079Z,86.03
2022-12-18T18:53:49.962Z,84.57
2022-12-18T18:59:05.424Z,84.72
2022-12-18T19:01:32.399Z,82.03
2022-12-18T19:03:59.183Z,80.07
2022-12-18T19:06:27.934Z,81.57
2022-12-18T19:08:55.878Z,86.47
2022-12-18T19:11:43.303Z,85.67
2022-12-18T19:14:12.444Z,79.27
2022-12-18T19:16:40.210Z,83.28
2022-12-18T19:19:07.876Z,78.90
2022-12-18T19:21:35.939Z,86.10
2022-12-18T19:24:06.953Z,99.97
2022-12-18T19:26:34.338Z,101.90
2022-12-18T19:29:06.195Z,84.47
2022-12-18T19:31:36.450Z,81.63
2022-12-18T19:34:07.056Z,78.07
2022-12-18T19:36:36.035Z,80.03
2022-12-18T19:47:46.138Z,82.40
2022-12-18T19:50:13.685Z,75.07
2022-12-18T19:52:41.065Z,75.77
2022-12-18T19:58:00.241Z,71.87
2022-12-18T20:00:27.282Z,74.97
2022-12-18T20:03:02.434Z,84.70
2022-12-18T20:05:34.589Z,79.20
2022-12-18T20:08:01.435Z,68.45
2022-12-18T20:10:28.892Z,70.13
2022-12-18T20:12:56.057Z,71.63
2022-12-18T20:15:24.445Z,66.43
2022-12-18T20:17:52.591Z,80.83
2022-12-18T20:20:19.842Z,71.37
2022-12-18T20:22:50.075Z,73.17
2022-12-18T20:25:17.416Z,74.10
2022-12-18T20:27:46.015Z,78.00
2022-12-18T20:30:13.458Z,73.73
2022-12-18T20:32:40.409Z,75.10
2022-12-18T20:35:07.473Z,73.47
2022-12-18T20:43:17.611Z,67.65
2022-12-18T20:45:44.797Z,78.20
2022-12-18T20:48:14.095Z,70.63
2022-12-18T20:50:43.371Z,69.63
2022-12-18T20:53:10.310Z,77.93
2022-12-18T20:55:42.994Z,67.83
2022-12-18T20:58:09.721Z,83.33
2022-12-18T21:00:36.383Z,78.60
2022-12-18T21:03:03.356Z,80.40
2022-12-18T21:05:30.157Z,69.47
2022-12-18T21:07:56.846Z,77.27
2022-12-18T21:10:23.476Z,74.70
2022-12-18T21:13:00.158Z,74.07
2022-12-18T21:15:29.835Z,69.13
2022-12-18T21:17:56.560Z,70.67
2022-12-18T21:20:23.519Z,74.33
2022-12-18T21:22:50.680Z,75.57
2022-12-18T21:25:18.930Z,70.63
2022-12-18T21:27:45.508Z,73.97
2022-12-18T21:30:14.128Z,72.30
2022-12-18T21:32:40.988Z,72.60
2022-12-18T21:35:08.066Z,79.20
2022-12-18T21:37:34.781Z,76.53
2022-12-18T21:40:01.477Z,72.77
2022-12-18T21:42:46.853Z,76.22
2022-12-18T21:45:13.552Z,71.30
2022-12-18T21:47:40.179Z,74.10
2022-12-18T21:50:07.118Z,66.13
2022-12-18T21:52:33.731Z,73.60
2022-12-18T21:55:07.871Z,72.80
2022-12-18T21:57:35.647Z,72.83
2022-12-18T22:00:02.982Z,67.35
2022-12-18T22:02:29.919Z,76.80
2022-12-18T22:04:56.687Z,75.28
2022-12-18T22:07:23.621Z,71.10
2022-12-18T22:09:50.247Z,72.20
2022-12-18T22:12:35.351Z,76.28
2022-12-18T22:15:06.344Z,74.77
2022-12-18T22:17:33.026Z,75.33
2022-12-18T22:19:59.666Z,66.40
2022-12-18T22:22:26.538Z,77.53
2022-12-18T22:24:53.171Z,77.55
2022-12-18T22:27:19.858Z,79.88
2022-12-18T22:30:04.603Z,68.78
2022-12-18T22:32:35.797Z,73.80
2022-12-18T22:35:09.273Z,76.28
2022-12-18T22:37:39.436Z,78.53
2022-12-18T22:40:07.409Z,69.07
2022-12-18T22:42:34.299Z,81.35
2022-12-18T22:45:00.966Z,78.03
2022-12-18T22:47:30.141Z,71.43
2022-12-18T22:49:58.017Z,76.05
2022-12-18T22:52:25.280Z,77.15
2022-12-18T22:54:53.514Z,75.53
2022-12-18T22:57:21.583Z,80.53
2022-12-18T22:59:49.088Z,76.22
2022-12-18T23:02:16.540Z,75.70
2022-12-18T23:04:43.497Z,79.05
2022-12-18T23:07:10.545Z,80.85
2022-12-18T23:09:38.191Z,71.18
2022-12-18T23:12:05.134Z,76.82
2022-12-18T23:14:32.000Z,80.57
2022-12-18T23:16:58.594Z,71.88
2022-12-18T23:19:26.144Z,76.32
2022-12-18T23:21:52.827Z,76.03
2022-12-18T23:24:21.503Z,76.03
2022-12-18T23:26:48.165Z,77.40
2022-12-18T23:29:14.790Z,72.15
2022-12-18T23:31:41.602Z,77.63
2022-12-18T23:34:11.031Z,74.30
2022-12-18T23:36:46.278Z,76.45
2022-12-18T23:39:15.397Z,74.95
2022-12-18T23:41:56.354Z,77.80
2022-12-18T23:44:23.035Z,75.97
2022-12-18T23:46:49.735Z,77.15
2022-12-18T23:49:16.556Z,71.10
2022-12-18T23:51:43.504Z,74.80
2022-12-18T23:54:10.286Z,79.00
2022-12-18T23:56:36.998Z,71.97
2022-12-18T23:59:03.745Z,71.47
